Manchester, Massachusetts
Current Conditions -  °F | °C
As of 3:53 AM on Saturday 25 Oct 2014 (Local Time) from KBVY Reporting Station
Overcast Overcast  
Wind Chill: 44°   Ceiling: 6500
Heat Index: 47°   Visibility: 10mi
Dew Point: 41°   Wind: 6mph
Humidity: 80%   Direction: 310°NW
Pressure: 29.73"   Gusts: NA
Location:  42.58°N, 70.77°W
Report Text: KBVY 250753Z AUTO 31005KT 10SM OVC065 08/05 A2973 RMK AO2 SLP063 T00830050
Loading
Personal Weather Stations






























Interactive Weather Map
Tropical Storm Tracking
New forecast layout! Learn more

10-Day Weather Forecast

Advertisements
Track Severe Weather on mobile